createdAt,value
2018-05-11T00:00:59.061Z,98138.12
2018-05-11T00:03:26.697Z,98140.87
2018-05-11T00:05:54.430Z,98141.30
2018-05-11T00:08:22.009Z,98144.44
2018-05-11T00:10:49.559Z,98140.95
2018-05-11T00:13:17.171Z,98137.50
2018-05-11T00:15:44.800Z,98141.23
2018-05-11T00:18:12.386Z,98131.08
2018-05-11T00:20:40.249Z,98126.05
2018-05-11T00:23:07.835Z,98127.83
2018-05-11T00:25:35.404Z,98127.52
2018-05-11T00:28:03.072Z,98132.22
2018-05-11T00:30:30.645Z,98123.91
2018-05-11T00:32:59.932Z,98120.92
2018-05-11T00:35:28.469Z,98124.20
2018-05-11T00:37:56.090Z,98122.28
2018-05-11T00:40:23.724Z,98127.66
2018-05-11T00:42:51.419Z,98120.61
2018-05-11T00:45:18.977Z,98128.39
2018-05-11T00:47:46.602Z,98126.41
2018-05-11T00:50:14.308Z,98124.90
2018-05-11T00:52:41.933Z,98130.86
2018-05-11T00:55:23.483Z,98125.66
2018-05-11T00:57:51.296Z,98122.30
2018-05-11T01:00:18.868Z,98124.70
2018-05-11T01:02:46.568Z,98123.94
2018-05-11T01:05:14.137Z,98127.92
2018-05-11T01:07:41.712Z,98133.54
2018-05-11T01:10:09.441Z,98135.00
2018-05-11T01:12:37.018Z,98135.06
2018-05-11T01:15:04.613Z,98135.34
2018-05-11T01:17:32.338Z,98131.15
2018-05-11T01:20:00.133Z,98140.16
2018-05-11T01:22:27.715Z,98143.61
2018-05-11T01:24:55.348Z,98148.36
2018-05-11T01:27:22.920Z,98144.03
2018-05-11T01:29:50.552Z,98143.23
2018-05-11T01:32:18.178Z,98139.05
2018-05-11T01:34:45.775Z,98151.67
2018-05-11T01:37:13.342Z,98151.84
2018-05-11T01:39:41.286Z,98149.39
2018-05-11T01:42:08.898Z,98145.48
2018-05-11T01:44:36.475Z,98151.13
2018-05-11T01:47:04.108Z,98148.58
2018-05-11T01:49:31.721Z,98146.80
2018-05-11T01:51:59.310Z,98151.09
2018-05-11T01:54:27.027Z,98161.88
2018-05-11T01:56:54.591Z,98163.17
2018-05-11T01:59:22.192Z,98159.62
2018-05-11T02:01:49.903Z,98155.16
2018-05-11T02:04:17.560Z,98168.29
2018-05-11T02:06:45.147Z,98165.91
2018-05-11T02:09:12.779Z,98163.30
2018-05-11T02:11:45.353Z,98165.29
2018-05-11T02:14:13.925Z,98158.10
2018-05-11T02:16:41.527Z,98157.41
2018-05-11T02:19:09.160Z,98157.59
2018-05-11T02:21:36.845Z,98154.83
2018-05-11T02:24:04.484Z,98160.48
2018-05-11T02:26:32.080Z,98159.30
2018-05-11T02:28:59.791Z,98159.54
2018-05-11T02:31:27.383Z,98165.27
2018-05-11T02:33:55.007Z,98160.77
2018-05-11T02:36:22.656Z,98161.14
2018-05-11T02:38:50.291Z,98164.19
2018-05-11T02:41:17.883Z,98150.67
2018-05-11T02:43:45.652Z,98168.27
2018-05-11T02:46:13.233Z,98160.06
2018-05-11T02:48:41.426Z,98164.47
2018-05-11T02:51:09.171Z,98164.25
2018-05-11T02:53:36.811Z,98167.39
2018-05-11T02:56:04.416Z,98169.48
2018-05-11T02:58:32.037Z,98167.84
2018-05-11T03:00:59.737Z,98172.87
2018-05-11T03:03:27.318Z,98173.00
2018-05-11T03:05:55.600Z,98177.19
2018-05-11T03:08:23.671Z,98191.36
2018-05-11T03:10:51.264Z,98187.70
2018-05-11T03:13:18.900Z,98182.45
2018-05-11T03:15:46.489Z,98188.63
2018-05-11T03:18:14.055Z,98201.97
2018-05-11T03:20:41.766Z,98191.38
2018-05-11T03:23:09.418Z,98195.42
2018-05-11T03:25:36.979Z,98192.56
2018-05-11T03:28:04.680Z,98200.45
2018-05-11T03:30:32.298Z,98199.66
2018-05-11T03:32:59.957Z,98200.77
2018-05-11T03:35:27.672Z,98200.28
2018-05-11T03:37:55.311Z,98200.77
2018-05-11T03:40:22.899Z,98200.25
2018-05-11T03:42:50.671Z,98211.67
2018-05-11T03:45:18.249Z,98214.02
2018-05-11T03:47:45.916Z,98218.31
2018-05-11T03:50:13.612Z,98220.97
2018-05-11T03:52:41.232Z,98219.14
2018-05-11T03:55:08.840Z,98224.42
2018-05-11T03:57:36.571Z,98228.27
2018-05-11T04:00:04.271Z,98242.47
2018-05-11T04:02:44.887Z,98236.14
2018-05-11T04:05:24.158Z,98237.19
2018-05-11T04:08:04.551Z,98244.23
2018-05-11T04:10:32.159Z,98247.14
2018-05-11T04:12:59.802Z,98249.61
2018-05-11T04:15:27.437Z,98244.75
2018-05-11T04:17:55.067Z,98249.11
2018-05-11T04:20:22.702Z,98250.32
2018-05-11T04:22:50.455Z,98251.16
2018-05-11T04:25:18.033Z,98261.91
2018-05-11T04:27:45.721Z,98267.36
2018-05-11T04:30:13.483Z,98263.97
2018-05-11T04:32:41.037Z,98268.05
2018-05-11T04:35:08.644Z,98274.59
2018-05-11T04:37:36.363Z,98270.37
2018-05-11T04:40:03.978Z,98265.27
2018-05-11T04:42:31.556Z,98265.20
2018-05-11T04:44:59.232Z,98270.66
2018-05-11T04:47:26.824Z,98267.34
2018-05-11T04:49:55.380Z,98266.13
2018-05-11T04:52:23.020Z,98271.13
2018-05-11T04:54:50.611Z,98272.02
2018-05-11T04:57:18.273Z,98282.98
2018-05-11T04:59:45.959Z,98286.05
2018-05-11T05:02:13.556Z,98290.23
2018-05-11T05:04:41.324Z,98296.06
2018-05-11T05:07:09.021Z,98289.25
2018-05-11T05:09:36.590Z,98293.61
2018-05-11T05:12:04.878Z,98281.61
2018-05-11T05:14:32.578Z,98281.30
2018-05-11T05:17:00.245Z,98280.77
2018-05-11T05:19:27.984Z,98301.95
2018-05-11T05:21:55.613Z,98297.91
2018-05-11T05:24:23.199Z,98300.06
2018-05-11T05:26:50.845Z,98294.27
2018-05-11T05:29:18.508Z,98300.12
2018-05-11T05:31:46.075Z,98298.20
2018-05-11T05:34:13.686Z,98310.61
2018-05-11T05:36:41.964Z,98297.47
2018-05-11T05:39:09.690Z,98296.64
2018-05-11T05:41:37.239Z,98306.55
2018-05-11T05:44:04.980Z,98311.37
2018-05-11T05:46:32.556Z,98324.56
2018-05-11T05:49:00.148Z,98340.10
2018-05-11T05:51:27.764Z,98343.34
2018-05-11T05:53:55.344Z,98343.66
2018-05-11T05:56:22.903Z,98341.10
2018-05-11T05:58:50.864Z,98355.22
2018-05-11T06:01:18.436Z,98361.77
2018-05-11T06:03:45.995Z,98353.91
2018-05-11T06:06:13.644Z,98363.48
2018-05-11T06:08:41.217Z,98349.41
2018-05-11T06:11:08.877Z,98353.44
2018-05-11T06:13:36.504Z,98358.84
2018-05-11T06:16:04.080Z,98363.33
2018-05-11T06:18:31.718Z,98362.98
2018-05-11T06:20:59.404Z,98353.69
2018-05-11T06:23:26.988Z,98353.06
2018-05-11T06:25:54.555Z,98352.54
2018-05-11T06:28:22.200Z,98357.25
2018-05-11T06:30:49.816Z,98350.13
2018-05-11T06:33:17.471Z,98354.08
2018-05-11T06:35:45.147Z,98356.30
2018-05-11T06:38:12.785Z,98362.83
2018-05-11T06:40:40.383Z,98359.86
2018-05-11T06:43:08.023Z,98365.45
2018-05-11T06:45:35.680Z,98373.95
2018-05-11T06:48:03.296Z,98368.52
2018-05-11T06:50:30.905Z,98376.51
2018-05-11T06:52:58.552Z,98377.17
2018-05-11T06:55:26.157Z,98372.91
2018-05-11T06:57:53.876Z,98368.92
2018-05-11T07:00:21.440Z,98357.97
2018-05-11T07:02:49.014Z,98379.54
2018-05-11T07:05:16.710Z,98362.75
2018-05-11T07:07:44.449Z,98372.52
2018-05-11T07:10:11.967Z,98375.86
2018-05-11T07:12:40.293Z,98377.81
2018-05-11T07:15:07.877Z,98373.50
2018-05-11T07:17:35.458Z,98379.11
2018-05-11T07:20:03.130Z,98377.31
2018-05-11T07:22:30.729Z,98372.56
2018-05-11T07:24:58.382Z,98377.28
2018-05-11T07:27:26.028Z,98362.91
2018-05-11T07:29:53.608Z,98366.38
2018-05-11T07:32:21.245Z,98369.34
2018-05-11T07:34:49.083Z,98368.91
2018-05-11T07:37:16.655Z,98365.95
2018-05-11T07:39:44.234Z,98370.25
2018-05-11T07:42:11.958Z,98377.79
2018-05-11T07:44:39.532Z,98377.52
2018-05-11T07:47:07.295Z,98378.44
2018-05-11T07:49:35.017Z,98373.94
2018-05-11T07:52:02.581Z,98376.55
2018-05-11T07:54:30.170Z,98380.36
2018-05-11T07:56:57.914Z,98371.00
2018-05-11T07:59:25.591Z,98372.83
2018-05-11T08:01:53.224Z,98370.70
2018-05-11T08:04:20.917Z,98373.90
2018-05-11T08:06:48.552Z,98382.72
2018-05-11T08:09:16.139Z,98382.64
2018-05-11T08:11:43.832Z,98373.66
2018-05-11T08:14:11.497Z,98378.05
2018-05-11T08:16:39.043Z,98380.72
2018-05-11T08:19:07.005Z,98371.16
2018-05-11T08:21:35.362Z,98373.97
2018-05-11T08:24:03.460Z,98389.19
2018-05-11T08:26:31.247Z,98398.61
2018-05-11T08:28:58.929Z,98408.04
2018-05-11T08:31:26.521Z,98394.33
2018-05-11T08:33:54.156Z,98399.08
2018-05-11T08:36:21.803Z,98389.59
2018-05-11T08:38:49.467Z,98390.14
2018-05-11T08:41:17.157Z,98392.62
2018-05-11T08:43:44.733Z,98393.22
2018-05-11T08:46:12.323Z,98398.97
2018-05-11T08:48:40.056Z,98404.00
2018-05-11T08:51:07.675Z,98417.52
2018-05-11T08:53:35.258Z,98417.73
2018-05-11T08:56:02.918Z,98420.00
2018-05-11T08:58:31.030Z,98421.61
2018-05-11T09:00:58.688Z,98420.92
2018-05-11T09:03:26.307Z,98422.91
2018-05-11T09:05:53.899Z,98427.30
2018-05-11T09:08:21.542Z,98434.08
2018-05-11T09:10:49.174Z,98433.48
2018-05-11T09:13:16.752Z,98432.68
2018-05-11T09:15:44.325Z,98434.84
2018-05-11T09:18:11.961Z,98432.45
2018-05-11T09:20:39.593Z,98434.37
2018-05-11T09:23:07.183Z,98432.64
2018-05-11T09:25:34.802Z,98429.41
2018-05-11T09:28:02.373Z,98439.22
2018-05-11T09:30:29.954Z,98431.81
2018-05-11T09:32:57.658Z,98431.27
2018-05-11T09:37:53.461Z,98436.45
2018-05-11T09:40:21.092Z,98437.30
2018-05-11T09:42:49.520Z,98434.33
2018-05-11T09:45:17.098Z,98436.70
2018-05-11T09:47:44.716Z,98440.33
2018-05-11T09:50:12.301Z,98442.09
2018-05-11T09:52:39.900Z,98445.30
2018-05-11T09:55:07.591Z,98446.41
2018-05-11T09:57:35.177Z,98446.44
2018-05-11T10:00:02.821Z,98450.97
2018-05-11T10:02:31.363Z,98451.71
2018-05-11T10:04:59.002Z,98447.44
2018-05-11T10:07:26.597Z,98444.13
2018-05-11T10:09:54.364Z,98442.23
2018-05-11T10:12:22.252Z,98442.38
2018-05-11T10:14:49.881Z,98448.38
2018-05-11T10:17:17.567Z,98455.77
2018-05-11T10:19:45.258Z,98458.06
2018-05-11T10:22:12.844Z,98459.05
2018-05-11T10:24:40.475Z,98453.00
2018-05-11T10:27:08.056Z,98447.25
2018-05-11T10:29:35.624Z,98444.81
2018-05-11T10:32:03.360Z,98451.54
2018-05-11T10:34:31.024Z,98447.13
2018-05-11T10:36:59.309Z,98449.25
2018-05-11T10:39:27.104Z,98451.13
2018-05-11T10:41:54.681Z,98455.33
2018-05-11T10:44:22.315Z,98452.16
2018-05-11T10:46:49.927Z,98452.31
2018-05-11T10:49:17.506Z,98443.20
2018-05-11T10:51:45.140Z,98438.39
2018-05-11T10:54:12.873Z,98425.96
2018-05-11T10:56:40.627Z,98429.66
2018-05-11T10:59:08.244Z,98422.92
2018-05-11T11:01:35.867Z,98420.20
2018-05-11T11:04:03.468Z,98421.27
2018-05-11T11:06:31.147Z,98426.13
2018-05-11T11:08:58.773Z,98419.30
2018-05-11T11:11:26.358Z,98421.20
2018-05-11T11:13:54.030Z,98417.44
2018-05-11T11:16:21.669Z,98415.86
2018-05-11T11:18:49.248Z,98404.14
2018-05-11T11:21:17.497Z,98411.69
2018-05-11T11:23:45.225Z,98416.19
2018-05-11T11:26:12.869Z,98411.14
2018-05-11T11:28:40.599Z,98418.80
2018-05-11T11:31:08.311Z,98413.80
2018-05-11T11:33:35.896Z,98414.83
2018-05-11T11:36:03.596Z,98422.38
2018-05-11T11:38:31.997Z,98413.75
2018-05-11T11:40:59.615Z,98416.77
2018-05-11T11:43:27.204Z,98419.30
2018-05-11T11:45:55.038Z,98415.89
2018-05-11T11:48:22.704Z,98419.97
2018-05-11T11:50:51.091Z,98423.12
2018-05-11T11:53:18.757Z,98423.14
2018-05-11T11:55:46.411Z,98424.16
2018-05-11T11:58:13.996Z,98424.20
2018-05-11T12:00:44.706Z,98421.81
2018-05-11T12:03:12.280Z,98420.12
2018-05-11T12:05:39.862Z,98420.63
2018-05-11T12:08:07.536Z,98423.94
2018-05-11T12:10:35.133Z,98433.82
2018-05-11T12:13:02.779Z,98435.36
2018-05-11T12:15:30.519Z,98432.08
2018-05-11T12:17:58.091Z,98438.36
2018-05-11T12:20:25.687Z,98441.58
2018-05-11T12:22:53.303Z,98459.34
2018-05-11T12:25:20.876Z,98451.62
2018-05-11T12:27:48.451Z,98454.47
2018-05-11T12:30:16.206Z,98443.47
2018-05-11T12:32:43.776Z,98446.66
2018-05-11T12:35:11.350Z,98448.93
2018-05-11T12:37:38.972Z,98443.63
2018-05-11T12:40:06.563Z,98447.58
2018-05-11T12:42:34.136Z,98444.31
2018-05-11T12:45:01.816Z,98449.42
2018-05-11T12:47:29.472Z,98440.89
2018-05-11T12:49:57.109Z,98434.70
2018-05-11T12:52:24.876Z,98436.66
2018-05-11T12:54:52.430Z,98427.71
2018-05-11T12:57:20.066Z,98420.38
2018-05-11T12:59:47.776Z,98422.46
2018-05-11T13:02:15.356Z,98427.77
2018-05-11T13:04:42.959Z,98419.86
2018-05-11T13:07:10.760Z,98412.70
2018-05-11T13:09:38.351Z,98412.88
2018-05-11T13:12:05.959Z,98407.82
2018-05-11T13:14:33.619Z,98399.71
2018-05-11T13:17:01.278Z,98400.86
2018-05-11T13:19:28.912Z,98399.69
2018-05-11T13:21:56.559Z,98385.65
2018-05-11T13:24:24.172Z,98390.05
2018-05-11T13:26:51.804Z,98379.26
2018-05-11T13:29:19.460Z,98370.63
2018-05-11T13:31:47.047Z,98372.16
2018-05-11T13:34:14.716Z,98373.98
2018-05-11T13:36:42.390Z,98374.06
2018-05-11T13:39:10.048Z,98372.41
2018-05-11T13:41:37.721Z,98362.49
2018-05-11T13:44:05.682Z,98359.53
2018-05-11T13:46:33.353Z,98364.06
2018-05-11T13:49:01.003Z,98372.11
2018-05-11T13:51:28.626Z,98375.23
2018-05-11T13:53:56.205Z,98374.52
2018-05-11T13:56:23.962Z,98376.53
2018-05-11T13:58:51.536Z,98378.12
2018-05-11T14:01:19.192Z,98384.88
2018-05-11T14:03:46.816Z,98379.40
2018-05-11T14:06:14.512Z,98391.48
2018-05-11T14:08:42.101Z,98390.33
2018-05-11T14:11:09.737Z,98396.86
2018-05-11T14:13:37.452Z,98392.75
2018-05-11T14:16:05.181Z,98396.27
2018-05-11T14:18:32.843Z,98395.45
2018-05-11T14:21:00.475Z,98402.06
2018-05-11T14:23:28.072Z,98403.27
2018-05-11T14:25:55.732Z,98409.02
2018-05-11T14:28:23.429Z,98403.35
2018-05-11T14:30:51.016Z,98407.88
2018-05-11T14:33:18.603Z,98412.33
2018-05-11T14:35:46.241Z,98420.45
2018-05-11T14:38:13.905Z,98415.73
2018-05-11T14:40:41.505Z,98416.22
2018-05-11T14:43:09.147Z,98426.24
2018-05-11T14:45:37.504Z,98436.02
2018-05-11T14:48:05.100Z,98439.45
2018-05-11T14:50:32.736Z,98436.47
2018-05-11T14:53:00.365Z,98447.59
2018-05-11T14:55:28.047Z,98451.95
2018-05-11T14:57:55.785Z,98451.95
2018-05-11T15:00:23.390Z,98451.72
2018-05-11T15:02:50.994Z,98452.23
2018-05-11T15:05:18.632Z,98457.87
2018-05-11T15:07:46.209Z,98462.59
2018-05-11T15:10:13.902Z,98464.47
2018-05-11T15:12:41.457Z,98463.99
2018-05-11T15:15:11.450Z,98472.23
2018-05-11T15:17:39.113Z,98465.30
2018-05-11T15:20:07.097Z,98474.58
2018-05-11T15:22:34.743Z,98475.59
2018-05-11T15:25:02.340Z,98474.55
2018-05-11T15:27:30.052Z,98475.20
2018-05-11T15:29:57.641Z,98466.28
2018-05-11T15:32:25.288Z,98463.56
2018-05-11T15:34:52.961Z,98468.60
2018-05-11T15:37:20.549Z,98468.69
2018-05-11T15:39:48.168Z,98468.00
2018-05-11T15:42:15.799Z,98469.44
2018-05-11T15:44:43.408Z,98466.18
2018-05-11T15:47:11.071Z,98465.28
2018-05-11T15:49:38.757Z,98463.13
2018-05-11T15:52:06.396Z,98469.38
2018-05-11T15:54:33.975Z,98479.54
2018-05-11T15:57:01.607Z,98482.48
2018-05-11T15:59:29.184Z,98480.12
2018-05-11T16:01:56.780Z,98477.17
2018-05-11T16:04:24.492Z,98483.39
2018-05-11T16:06:52.666Z,98479.20
2018-05-11T16:09:20.318Z,98470.09
2018-05-11T16:11:48.049Z,98474.36
2018-05-11T16:14:15.721Z,98476.49
2018-05-11T16:16:43.308Z,98482.78
2018-05-11T16:19:10.955Z,98483.61
2018-05-11T16:21:38.592Z,98484.71
2018-05-11T16:24:06.258Z,98479.66
2018-05-11T16:26:34.079Z,98482.28
2018-05-11T16:29:01.668Z,98485.20
2018-05-11T16:31:29.312Z,98485.02
2018-05-11T16:33:56.971Z,98490.27
2018-05-11T16:36:24.571Z,98481.52
2018-05-11T16:38:52.148Z,98488.90
2018-05-11T16:41:19.877Z,98487.11
2018-05-11T16:43:47.563Z,98493.05
2018-05-11T16:46:15.131Z,98486.99
2018-05-11T16:48:42.775Z,98489.92
2018-05-11T16:51:10.487Z,98490.53
2018-05-11T16:53:38.101Z,98498.03
2018-05-11T16:56:05.720Z,98505.13
2018-05-11T16:58:33.308Z,98513.28
2018-05-11T17:01:00.954Z,98509.77
2018-05-11T17:03:29.344Z,98508.75
2018-05-11T17:05:57.857Z,98510.12
2018-05-11T17:08:25.428Z,98514.19
2018-05-11T17:10:53.092Z,98509.38
2018-05-11T17:13:20.751Z,98519.19
2018-05-11T17:15:48.307Z,98520.28
2018-05-11T17:18:16.102Z,98522.06
2018-05-11T17:20:43.778Z,98518.91
2018-05-11T17:23:11.408Z,98518.86
2018-05-11T17:25:39.109Z,98522.25
2018-05-11T17:28:06.681Z,98527.85
2018-05-11T17:30:34.330Z,98537.50
2018-05-11T17:33:01.973Z,98527.45
2018-05-11T17:35:29.645Z,98535.20
2018-05-11T17:37:57.242Z,98550.38
2018-05-11T17:40:24.877Z,98562.25
2018-05-11T17:42:52.748Z,98582.53
2018-05-11T17:45:20.385Z,98611.36
2018-05-11T17:47:48.056Z,98620.05
2018-05-11T17:50:15.652Z,98626.98
2018-05-11T17:52:44.108Z,98626.09
2018-05-11T17:55:12.586Z,98644.72
2018-05-11T17:57:40.849Z,98637.70
2018-05-11T18:00:09.345Z,98648.22
2018-05-11T18:02:37.106Z,98635.20
2018-05-11T18:05:04.689Z,98632.56
2018-05-11T18:07:32.278Z,98627.84
2018-05-11T18:10:01.380Z,98620.67
2018-05-11T18:12:28.995Z,98617.45
2018-05-11T18:14:56.516Z,98621.40
2018-05-11T18:17:24.149Z,98618.20
2018-05-11T18:19:51.843Z,98583.42
2018-05-11T18:22:19.432Z,98576.67
2018-05-11T18:24:47.241Z,98587.26
2018-05-11T18:27:14.881Z,98594.85
2018-05-11T18:29:42.511Z,98593.81
2018-05-11T18:32:10.309Z,98596.06
2018-05-11T18:34:37.896Z,98599.75
2018-05-11T18:37:05.533Z,98606.59
2018-05-11T18:39:33.183Z,98612.51
2018-05-11T18:42:00.851Z,98610.84
2018-05-11T18:44:28.448Z,98610.95
2018-05-11T18:46:56.243Z,98619.95
2018-05-11T18:49:23.840Z,98615.05
2018-05-11T18:51:51.427Z,98610.31
2018-05-11T18:54:19.377Z,98612.83
2018-05-11T18:56:46.792Z,98623.71
2018-05-11T18:59:14.372Z,98616.81
2018-05-11T19:01:42.271Z,98624.16
2018-05-11T19:04:10.114Z,98628.57
2018-05-11T19:06:37.988Z,98627.74
2018-05-11T19:09:07.169Z,98627.77
2018-05-11T19:11:35.117Z,98624.84
2018-05-11T19:14:03.107Z,98614.17
2018-05-11T19:16:30.985Z,98615.03
2018-05-11T19:18:58.912Z,98619.63
2018-05-11T19:21:26.736Z,98625.52
2018-05-11T19:23:55.162Z,98631.27
2018-05-11T19:26:23.272Z,98633.78
2018-05-11T19:28:51.309Z,98633.06
2018-05-11T19:31:19.748Z,98623.62
2018-05-11T19:33:47.758Z,98637.14
2018-05-11T19:36:15.890Z,98628.55
2018-05-11T19:38:44.204Z,98636.27
2018-05-11T19:41:13.152Z,98638.56
2018-05-11T19:43:41.224Z,98638.89
2018-05-11T19:46:09.489Z,98636.56
2018-05-11T19:48:37.533Z,98629.34
2018-05-11T19:51:05.536Z,98631.50
2018-05-11T19:53:34.685Z,98630.34
2018-05-11T19:56:02.716Z,98629.49
2018-05-11T19:58:30.788Z,98633.88
2018-05-11T20:00:58.952Z,98630.09
2018-05-11T20:03:27.175Z,98628.03
2018-05-11T20:05:55.709Z,98625.52
2018-05-11T20:08:29.299Z,98627.61
2018-05-11T20:10:57.444Z,98627.86
2018-05-11T20:13:25.351Z,98626.82
2018-05-11T20:15:54.678Z,98634.75
2018-05-11T20:18:22.719Z,98635.30
2018-05-11T20:20:50.809Z,98631.03
2018-05-11T20:23:19.078Z,98635.11
2018-05-11T20:25:46.986Z,98640.88
2018-05-11T20:28:14.984Z,98639.74
2018-05-11T20:30:42.938Z,98635.17
2018-05-11T20:33:10.924Z,98635.06
2018-05-11T20:35:38.833Z,98638.16
2018-05-11T20:38:06.597Z,98641.60
2018-05-11T20:40:34.354Z,98639.16
2018-05-11T20:43:01.998Z,98631.28
2018-05-11T20:45:29.811Z,98629.08
2018-05-11T20:47:57.648Z,98636.30
2018-05-11T20:50:25.315Z,98642.05
2018-05-11T20:52:53.329Z,98644.02
2018-05-11T20:55:21.294Z,98647.76
2018-05-11T20:57:49.286Z,98639.41
2018-05-11T21:00:18.483Z,98637.52
2018-05-11T21:02:46.326Z,98641.78
2018-05-11T21:05:14.194Z,98645.00
2018-05-11T21:07:42.152Z,98649.10
2018-05-11T21:10:10.458Z,98648.06
2018-05-11T21:12:38.303Z,98648.17
2018-05-11T21:15:06.256Z,98652.30
2018-05-11T21:17:34.073Z,98650.55
2018-05-11T21:20:01.910Z,98655.45
2018-05-11T21:22:29.936Z,98649.20
2018-05-11T21:24:57.776Z,98650.53
2018-05-11T21:27:25.706Z,98657.40
2018-05-11T21:29:53.629Z,98663.50
2018-05-11T21:32:21.437Z,98655.75
2018-05-11T21:34:49.265Z,98656.45
2018-05-11T21:37:17.278Z,98662.25
2018-05-11T21:39:45.118Z,98663.17
2018-05-11T21:42:12.938Z,98661.89
2018-05-11T21:44:41.274Z,98659.63
2018-05-11T21:47:09.876Z,98660.27
2018-05-11T21:49:37.694Z,98656.48
2018-05-11T21:52:05.615Z,98657.75
2018-05-11T21:54:33.529Z,98647.45
2018-05-11T21:57:01.474Z,98657.23
2018-05-11T21:59:29.361Z,98658.35
2018-05-11T22:01:57.393Z,98663.17
2018-05-11T22:04:25.177Z,98651.35
2018-05-11T22:06:53.138Z,98657.15
2018-05-11T22:09:20.721Z,98658.78
2018-05-11T22:11:49.044Z,98655.47
2018-05-11T22:14:16.665Z,98659.25
2018-05-11T22:16:44.257Z,98658.02
2018-05-11T22:19:11.848Z,98658.22
2018-05-11T22:21:39.583Z,98657.83
2018-05-11T22:24:07.190Z,98653.73
2018-05-11T22:26:34.774Z,98656.64
2018-05-11T22:29:02.396Z,98654.86
2018-05-11T22:31:30.043Z,98651.22
2018-05-11T22:33:57.627Z,98651.22
2018-05-11T22:36:25.251Z,98650.38
2018-05-11T22:38:52.827Z,98654.73
2018-05-11T22:41:20.420Z,98656.14
2018-05-11T22:43:48.137Z,98646.16
2018-05-11T22:46:15.721Z,98652.61
2018-05-11T22:48:43.291Z,98655.86
2018-05-11T22:51:10.931Z,98643.80
2018-05-11T22:53:38.507Z,98648.88
2018-05-11T22:56:06.123Z,98649.95
2018-05-11T22:58:33.853Z,98646.42
2018-05-11T23:01:01.518Z,98646.39
2018-05-11T23:03:29.120Z,98645.08
2018-05-11T23:05:56.753Z,98646.56
2018-05-11T23:08:24.344Z,98648.97
2018-05-11T23:10:51.921Z,98648.65
2018-05-11T23:13:19.622Z,98651.20
2018-05-11T23:15:47.216Z,98655.97
2018-05-11T23:18:14.780Z,98655.06
2018-05-11T23:20:42.428Z,98649.78
2018-05-11T23:23:10.003Z,98648.75
2018-05-11T23:25:37.578Z,98650.39
2018-05-11T23:28:05.261Z,98650.95
2018-05-11T23:30:32.851Z,98654.52
2018-05-11T23:33:00.459Z,98651.80
2018-05-11T23:35:28.196Z,98649.08
2018-05-11T23:37:55.789Z,98654.32
2018-05-11T23:40:23.390Z,98655.26
2018-05-11T23:42:51.057Z,98655.97
2018-05-11T23:45:18.724Z,98659.11
2018-05-11T23:47:46.272Z,98653.67
2018-05-11T23:50:14.020Z,98651.37
2018-05-11T23:52:41.589Z,98649.17
2018-05-11T23:55:09.167Z,98646.36
2018-05-11T23:57:36.807Z,98646.88
